Terminal Aerodrome Forecast
Issued by NWS Salt Lake City, UT

Home | Current Version | Previous Version | Text Only | Print | Product List | Glossary On
Versions: 1 2 3 4 5 6 7 8 9 10 11 12 13 14 15 16 17 18 19 20 21 22 23 24 25 26 27 28 29 30 31 32 33
000
FTUS45 KSLC 260300 AAB
TAFSLC
TAF AMD
KSLC 260300Z 2603/2706 36006KT P6SM SCT080 SCT120
     FM260500 16006KT P6SM SCT150
     FM261700 31007KT P6SM SCT070 SCT100
     FM270300 14007KT P6SM SCT070 BKN100=

USA.gov is the U.S. government's official web portal to all federal, state and local government web resources and services.